Startpagina
METAR-TAF:

METAR-TAF

Vliegvelden :

Amman, Jordanië

breedte: 31-59N, lengte: 035-59E, hoogte: 767 m

Actueel weer

Dit bericht is 16 minuten geleden gemaakt, om 06:00 UTC
Wind 4 kt uit het noordwesten
Temperatuur 26°C
Vochtigheid 34%
Druk 1012 hPa
Zicht: 5000 m
Heiigheid

METAR: OJAM 160600Z 32004KT 5000 HZ NSC 26/09 Q1012 NOSIG

Tijdstip: 09:16 (06:16 UTC)

Verwachting

Dit bericht is 1 uur en het 26 minuten geleden gemaakt, om 04:50 UTC
Verwachting geldig van 16 om 06 UTC tot 17 om 12 UTC
Wind 8 kt uit het westen
Zicht: 5000 m
Weinig wolken op 3000 ft
Heiigheid
Tijdelijke
van 16 om 10 UTC tot 16 om 16 UTC
Wind 12 kt uit het westnoordwesten
Wijzigt naar
van 16 om 17 UTC tot 16 om 19 UTC
Wind 2 kt uit variabele richting
Zicht: 6000 m

TAF: OJAM 160450Z 1606/1712 27008KT 5000 HZ FEW030 TEMPO 1610/1616 29012KT BECMG 1617/1619 VRB02KT 6000 NSC

Waarnemingen en weersverwachtingen van meer dan 4000 vliegvelden (METAR en TAF).

De beschikbare stations zijn de gele en rode punten op de kaart.

Ga met uw muis naar het station om de naam te zien.

Klik dan om waarnemingen en weersverwachtingen te zien.

kaart wijzigen: klik op de groene knoppen met een zwart kruis om in te zoomen, op de groene knop met een streepje om uit te zoomen of op de groene pijlen voor aangrenzende kaarten.


METAR-TAF: